Flag for USA

Past Weather in Middleburg, Florida, USA — Yesterday and Last 2 Weeks

Currently: 73 °F. Sunny. (Weather station: Cecil Field Airport, USA). See more current weather

Past Weather in Middleburg — Graph

°F

Middleburg Temperature Yesterday

Maximum temperature yesterday: 88 °F (at 12:50 pm)
Minimum temperature yesterday: 72 °F (at 11:55 pm)
Average temperature yesterday: 78 °F

High & Low Weather Summary for the Past Weeks

 TemperatureHumidityPressure
High93 °F (Oct 15, 2:50 pm)100% (Oct 20, 7:50 am)30.22 "Hg (Oct 20, 7:50 am)
Low55 °F (Oct 30, 7:50 am)36% (Oct 15, 2:50 pm)29.77 "Hg (Oct 29, 4:50 pm)
Average74 °F84%30.04 "Hg
* Reported Oct 15 1:50 pm — Oct 30 1:50 pm, Middleburg. Weather by CustomWeather, © 2020

Note: Actual official high and low records may vary slightly from our data, if they occured in-between our weather recording intervals... More about our weather records

Middleburg Weather History for the Previous 24 Hours

Scroll right to see more
 ConditionsComfort  
Time TempWeatherWind HumidityBarometerVisibility
1:50 pm
Fri, Oct 30
73 °FSunny.7 mph41%30.02 "Hg10 mi
12:50 pm70 °FSunny.6 mph46%30.04 "Hg10 mi
11:50 am66 °FSunny.9 mph49%30.05 "Hg10 mi
10:50 am64 °FSunny.8 mph52%30.05 "Hg10 mi
9:50 am61 °FSunny.12 mph59%30.05 "Hg10 mi
8:50 am57 °FSunny.6 mph63%30.02 "Hg10 mi
7:50 am55 °FSunny.10 mph67%29.99 "Hg10 mi
6:50 am57 °FClear.10 mph67%29.96 "Hg10 mi
6:35 am57 °FClear.7 mph67%29.95 "Hg10 mi
6:15 am59 °FClear.10 mph63%29.94 "Hg10 mi
5:55 am59 °FClear.10 mph68%29.93 "Hg10 mi
5:35 am59 °FClear.9 mph68%29.93 "Hg10 mi
5:15 am61 °FClear.10 mph68%29.92 "Hg10 mi
4:35 am61 °FClear.9 mph77%29.92 "Hg10 mi
4:15 am61 °FClear.8 mph83%29.92 "Hg10 mi
3:55 am63 °FClear.7 mph77%29.92 "Hg10 mi
3:35 am63 °FClear.5 mph83%29.92 "Hg10 mi
3:15 am63 °FClear.5 mph83%29.92 "Hg10 mi
2:55 am64 °FClear.8 mph78%29.91 "Hg10 mi
2:35 am66 °FClear.7 mph73%29.91 "Hg10 mi
2:15 am66 °FClear.8 mph78%29.91 "Hg10 mi
1:55 am68 °FClear.10 mph73%29.90 "Hg10 mi
1:35 am68 °FClear.9 mph78%29.89 "Hg10 mi
12:55 am70 °FClear.8 mph78%29.88 "Hg10 mi
12:35 am72 °FClear.12 mph73%29.87 "Hg10 mi
12:15 am72 °FPassing clouds.12 mph78%29.86 "Hg10 mi
11:55 pm
Thu, Oct 29
72 °FPassing clouds.10 mph78%29.86 "Hg10 mi
11:35 pm73 °FPassing clouds.9 mph78%29.85 "Hg10 mi
11:15 pm73 °FPassing clouds.14 mph83%29.84 "Hg10 mi
9:50 pm77 °FPassing clouds.10 mph89%29.82 "Hg10 mi
8:50 pm77 °FPartly cloudy.10 mph89%29.81 "Hg10 mi
7:50 pm77 °FOvercast.10 mph89%29.80 "Hg10 mi
6:50 pm77 °FPartly cloudy.9 mph89%29.80 "Hg10 mi
5:50 pm77 °FScattered clouds.7 mph94%29.79 "Hg10 mi
4:50 pm88 °FPartly sunny.17 mph59%29.77 "Hg10 mi
Weather by CustomWeather, © 2020

See weather overview